aviador You're here:

KSGF Decoded Metar

SPRINGFIELD in MO, USA
Report Time2017-05-23 19:52:00
UTC Time2017-05-23 20:34:59
Flight Rules vfr VFR
Wind310° at 10 kt
W.Decomp.*RWY 32: 9.7 kt HW 2.2 kt LCW
RWY 02: 2.9 kt HW 9.6 kt LCW
W.Rank310° ranks 17
Current wind is above 310° avg. (7.8)
Visibility9999 m
Phenomena:N/A
Clouds:Few 023 Hf
Broken 075 Hf
Overcast 090 Hf
Expected CloudBase > 1,600 ft AGL from Temp-Dew spread
Ceiling7,500 ft
Temp17°C (ISA +5)
Dew Point13°C (77% RH)
AAT14.3°C
QNH1009 hPa
Density Alt2,156 ft
Elevation1,280 ft
Report Wrong Elevation
Raw Report
KSGF 231952Z 31010KT 10SM FEW023 BKN075 OVC090 17/13 A2980 RMK AO2
SLP086 T01720128=

Extra information for KSGF:More info

Metar Taf Metar & Taf Last 4 Metars F.Rules Stats Wind Profile Meteogram Temp Stats Airport Information Weather charts Add Link Nearby VenuesMetar ALERT Operation Metar Decoded Social comments

AIRNAV info for KSGF